sensor_id;sensor_type;location;lat;lon;timestamp;pressure;altitude;pressure_sealevel;temperature;humidity
56042;BME280;48756;41.374;2.066;2022-08-01T00:02:16;101005.13;;;27.35;60.07
56042;BME280;48756;41.374;2.066;2022-08-01T00:04:41;100995.00;;;27.28;59.75
56042;BME280;48756;41.374;2.066;2022-08-01T00:07:06;100992.06;;;27.20;60.76
56042;BME280;48756;41.374;2.066;2022-08-01T00:09:32;100991.78;;;27.11;60.54
56042;BME280;48756;41.374;2.066;2022-08-01T00:11:57;100982.66;;;27.14;61.38
56042;BME280;48756;41.374;2.066;2022-08-01T00:14:23;100984.91;;;27.20;60.87
56042;BME280;48756;41.374;2.066;2022-08-01T00:16:48;100992.19;;;27.18;60.60
56042;BME280;48756;41.374;2.066;2022-08-01T00:19:13;100988.09;;;26.89;62.80
56042;BME280;48756;41.374;2.066;2022-08-01T00:21:39;100984.69;;;26.86;63.05
56042;BME280;48756;41.374;2.066;2022-08-01T00:24:04;100986.72;;;27.20;61.76
56042;BME280;48756;41.374;2.066;2022-08-01T00:26:30;100991.09;;;27.21;61.84
56042;BME280;48756;41.374;2.066;2022-08-01T00:28:55;100991.16;;;27.08;62.53
56042;BME280;48756;41.374;2.066;2022-08-01T00:31:20;100986.69;;;26.72;63.93
56042;BME280;48756;41.374;2.066;2022-08-01T00:33:46;100991.16;;;26.71;64.43
56042;BME280;48756;41.374;2.066;2022-08-01T00:36:12;100978.25;;;26.89;63.53
56042;BME280;48756;41.374;2.066;2022-08-01T00:38:37;100984.44;;;26.90;63.98
56042;BME280;48756;41.374;2.066;2022-08-01T00:41:02;100981.75;;;27.02;63.87
56042;BME280;48756;41.374;2.066;2022-08-01T00:43:28;100975.56;;;27.02;63.02
56042;BME280;48756;41.374;2.066;2022-08-01T00:45:53;100978.81;;;26.81;63.09
56042;BME280;48756;41.374;2.066;2022-08-01T00:48:19;100975.63;;;26.76;63.40
56042;BME280;48756;41.374;2.066;2022-08-01T00:50:44;100967.94;;;27.08;62.29
56042;BME280;48756;41.374;2.066;2022-08-01T00:53:10;100972.16;;;27.00;63.11
56042;BME280;48756;41.374;2.066;2022-08-01T00:55:35;100971.78;;;26.80;64.09
56042;BME280;48756;41.374;2.066;2022-08-01T00:58:01;100974.06;;;27.22;62.14
56042;BME280;48756;41.374;2.066;2022-08-01T01:00:27;100972.78;;;27.03;62.89
56042;BME280;48756;41.374;2.066;2022-08-01T01:02:52;100972.25;;;26.98;62.85
56042;BME280;48756;41.374;2.066;2022-08-01T01:05:17;100977.91;;;27.06;62.68
56042;BME280;48756;41.374;2.066;2022-08-01T01:10:13;100968.41;;;27.02;63.21
56042;BME280;48756;41.374;2.066;2022-08-01T01:12:57;100965.63;;;27.15;62.03
56042;BME280;48756;41.374;2.066;2022-08-01T01:15:34;100969.88;;;27.06;62.03
56042;BME280;48756;41.374;2.066;2022-08-01T01:18:13;100962.97;;;27.15;62.09
56042;BME280;48756;41.374;2.066;2022-08-01T01:20:41;100958.94;;;27.09;62.55
56042;BME280;48756;41.374;2.066;2022-08-01T01:30:49;100971.91;;;27.27;61.41
56042;BME280;48756;41.374;2.066;2022-08-01T01:33:16;100968.41;;;27.02;62.50
56042;BME280;48756;41.374;2.066;2022-08-01T01:35:44;100968.28;;;26.91;62.74
56042;BME280;48756;41.374;2.066;2022-08-01T01:38:14;100966.56;;;27.03;62.24
56042;BME280;48756;41.374;2.066;2022-08-01T01:40:42;100973.13;;;26.86;62.76
56042;BME280;48756;41.374;2.066;2022-08-01T01:43:16;100972.50;;;26.82;63.06
56042;BME280;48756;41.374;2.066;2022-08-01T01:45:41;100966.78;;;26.76;62.97
56042;BME280;48756;41.374;2.066;2022-08-01T01:48:07;100969.59;;;26.85;63.55
56042;BME280;48756;41.374;2.066;2022-08-01T01:50:34;100963.47;;;26.72;64.25
56042;BME280;48756;41.374;2.066;2022-08-01T01:53:01;100967.84;;;26.73;63.91
56042;BME280;48756;41.374;2.066;2022-08-01T01:55:27;100966.69;;;26.65;63.73
56042;BME280;48756;41.374;2.066;2022-08-01T01:57:53;100972.59;;;26.57;64.08
56042;BME280;48756;41.374;2.066;2022-08-01T02:00:20;100970.91;;;26.43;64.99
56042;BME280;48756;41.374;2.066;2022-08-01T02:02:46;100969.94;;;26.44;65.25
56042;BME280;48756;41.374;2.066;2022-08-01T02:05:12;100985.13;;;26.31;65.80
56042;BME280;48756;41.374;2.066;2022-08-01T02:07:38;100966.66;;;26.41;65.23
56042;BME280;48756;41.374;2.066;2022-08-01T02:10:04;100974.31;;;26.45;65.57
56042;BME280;48756;41.374;2.066;2022-08-01T02:12:32;100966.84;;;26.50;63.87
56042;BME280;48756;41.374;2.066;2022-08-01T02:14:57;100966.41;;;26.44;64.99
56042;BME280;48756;41.374;2.066;2022-08-01T02:17:23;100959.56;;;26.52;64.99
56042;BME280;48756;41.374;2.066;2022-08-01T02:19:49;100955.81;;;26.55;64.34
56042;BME280;48756;41.374;2.066;2022-08-01T02:30:18;100954.22;;;26.52;64.31
56042;BME280;48756;41.374;2.066;2022-08-01T02:32:46;100961.81;;;26.46;64.93
56042;BME280;48756;41.374;2.066;2022-08-01T02:35:19;100960.66;;;26.37;65.06
56042;BME280;48756;41.374;2.066;2022-08-01T02:37:46;100950.53;;;26.66;63.83
56042;BME280;48756;41.374;2.066;2022-08-01T02:40:13;100945.16;;;26.79;64.23
56042;BME280;48756;41.374;2.066;2022-08-01T02:42:50;100948.16;;;26.50;65.05
56042;BME280;48756;41.374;2.066;2022-08-01T02:45:17;100943.03;;;26.35;65.36
56042;BME280;48756;41.374;2.066;2022-08-01T02:47:44;100946.34;;;26.25;65.50
56042;BME280;48756;41.374;2.066;2022-08-01T02:50:10;100942.28;;;26.33;65.91
56042;BME280;48756;41.374;2.066;2022-08-01T02:52:37;100947.03;;;26.04;66.75
56042;BME280;48756;41.374;2.066;2022-08-01T02:55:06;100944.44;;;26.15;66.90
56042;BME280;48756;41.374;2.066;2022-08-01T02:57:33;100945.00;;;26.07;66.46
56042;BME280;48756;41.374;2.066;2022-08-01T02:59:59;100945.00;;;26.07;67.10
56042;BME280;48756;41.374;2.066;2022-08-01T03:02:32;100945.22;;;26.04;66.90
56042;BME280;48756;41.374;2.066;2022-08-01T03:04:59;100943.69;;;26.25;65.98
56042;BME280;48756;41.374;2.066;2022-08-01T03:07:25;100946.81;;;26.07;67.09
56042;BME280;48756;41.374;2.066;2022-08-01T03:09:55;100947.97;;;26.15;66.52
56042;BME280;48756;41.374;2.066;2022-08-01T03:12:22;100948.06;;;26.01;66.62
56042;BME280;48756;41.374;2.066;2022-08-01T03:14:50;100950.88;;;25.87;67.47
56042;BME280;48756;41.374;2.066;2022-08-01T03:17:18;100945.09;;;25.93;67.29
56042;BME280;48756;41.374;2.066;2022-08-01T03:19:44;100933.28;;;26.34;65.88
56042;BME280;48756;41.374;2.066;2022-08-01T03:22:11;100933.75;;;26.28;65.61
56042;BME280;48756;41.374;2.066;2022-08-01T03:24:38;100939.66;;;25.94;66.93
56042;BME280;48756;41.374;2.066;2022-08-01T03:27:04;100927.69;;;25.87;67.75
56042;BME280;48756;41.374;2.066;2022-08-01T03:29:30;100922.56;;;25.97;66.96
56042;BME280;48756;41.374;2.066;2022-08-01T03:31:57;100919.47;;;26.03;66.11
56042;BME280;48756;41.374;2.066;2022-08-01T03:34:23;100926.94;;;25.98;66.50
56042;BME280;48756;41.374;2.066;2022-08-01T03:39:15;100926.53;;;26.04;66.47
56042;BME280;48756;41.374;2.066;2022-08-01T03:41:43;100916.69;;;25.92;66.95
56042;BME280;48756;41.374;2.066;2022-08-01T03:44:13;100923.63;;;25.94;67.35
56042;BME280;48756;41.374;2.066;2022-08-01T03:46:47;100917.66;;;26.04;66.23
56042;BME280;48756;41.374;2.066;2022-08-01T03:49:32;100914.88;;;25.92;67.20
56042;BME280;48756;41.374;2.066;2022-08-01T03:51:59;100919.88;;;25.97;67.18
56042;BME280;48756;41.374;2.066;2022-08-01T03:54:28;100923.84;;;26.04;66.44
56042;BME280;48756;41.374;2.066;2022-08-01T03:56:55;100920.22;;;25.92;67.26
56042;BME280;48756;41.374;2.066;2022-08-01T03:59:22;100921.28;;;26.03;66.63
56042;BME280;48756;41.374;2.066;2022-08-01T04:01:48;100928.00;;;26.08;66.52
56042;BME280;48756;41.374;2.066;2022-08-01T04:04:13;100925.13;;;25.60;69.13
56042;BME280;48756;41.374;2.066;2022-08-01T04:06:39;100927.69;;;25.62;68.84
56042;BME280;48756;41.374;2.066;2022-08-01T04:09:06;100927.19;;;25.30;70.79
56042;BME280;48756;41.374;2.066;2022-08-01T04:11:32;100924.78;;;25.40;70.20
56042;BME280;48756;41.374;2.066;2022-08-01T04:13:57;100925.94;;;25.36;70.31
56042;BME280;48756;41.374;2.066;2022-08-01T04:16:23;100924.88;;;25.38;70.63
56042;BME280;48756;41.374;2.066;2022-08-01T04:18:48;100930.06;;;25.27;71.12
56042;BME280;48756;41.374;2.066;2022-08-01T04:21:14;100932.25;;;25.47;70.11
56042;BME280;48756;41.374;2.066;2022-08-01T04:23:43;100932.03;;;25.38;70.42
56042;BME280;48756;41.374;2.066;2022-08-01T04:26:09;100926.16;;;25.45;69.38
56042;BME280;48756;41.374;2.066;2022-08-01T04:28:36;100937.47;;;25.49;70.39
56042;BME280;48756;41.374;2.066;2022-08-01T04:31:02;100938.75;;;25.56;69.25
56042;BME280;48756;41.374;2.066;2022-08-01T04:33:30;100935.97;;;25.45;70.12
56042;BME280;48756;41.374;2.066;2022-08-01T04:35:56;100937.78;;;25.44;69.80
56042;BME280;48756;41.374;2.066;2022-08-01T04:38:24;100936.84;;;25.45;69.41
56042;BME280;48756;41.374;2.066;2022-08-01T04:40:52;100939.72;;;25.55;68.84
56042;BME280;48756;41.374;2.066;2022-08-01T04:43:19;100944.66;;;25.61;68.10
56042;BME280;48756;41.374;2.066;2022-08-01T04:45:44;100957.97;;;25.48;68.61
56042;BME280;48756;41.374;2.066;2022-08-01T04:48:10;100951.66;;;25.37;68.73
56042;BME280;48756;41.374;2.066;2022-08-01T04:50:37;100947.19;;;25.50;67.64
56042;BME280;48756;41.374;2.066;2022-08-01T04:53:03;100948.81;;;25.65;67.46
56042;BME280;48756;41.374;2.066;2022-08-01T04:55:29;100950.50;;;25.66;67.02
56042;BME280;48756;41.374;2.066;2022-08-01T04:57:56;100953.50;;;25.61;67.68
56042;BME280;48756;41.374;2.066;2022-08-01T05:00:21;100951.25;;;25.55;67.83
56042;BME280;48756;41.374;2.066;2022-08-01T05:02:47;100950.09;;;25.59;68.02
56042;BME280;48756;41.374;2.066;2022-08-01T05:05:12;100961.59;;;25.47;67.99
56042;BME280;48756;41.374;2.066;2022-08-01T05:07:38;100957.53;;;25.54;67.62
56042;BME280;48756;41.374;2.066;2022-08-01T05:10:04;100952.75;;;25.59;67.29
56042;BME280;48756;41.374;2.066;2022-08-01T05:12:29;100960.44;;;25.64;67.73
56042;BME280;48756;41.374;2.066;2022-08-01T05:14:56;100960.41;;;25.51;67.84
56042;BME280;48756;41.374;2.066;2022-08-01T05:17:22;100962.97;;;25.40;67.92
56042;BME280;48756;41.374;2.066;2022-08-01T05:19:47;100963.09;;;25.51;67.33
56042;BME280;48756;41.374;2.066;2022-08-01T05:22:13;100959.38;;;25.67;67.11
56042;BME280;48756;41.374;2.066;2022-08-01T05:24:38;100959.47;;;25.65;67.21
56042;BME280;48756;41.374;2.066;2022-08-01T05:27:04;100964.63;;;25.68;66.52
56042;BME280;48756;41.374;2.066;2022-08-01T05:29:31;100971.16;;;25.77;66.60
56042;BME280;48756;41.374;2.066;2022-08-01T05:31:57;100971.25;;;25.75;67.05
56042;BME280;48756;41.374;2.066;2022-08-01T05:34:24;100964.94;;;25.63;66.26
56042;BME280;48756;41.374;2.066;2022-08-01T05:36:49;100967.94;;;25.72;65.57
56042;BME280;48756;41.374;2.066;2022-08-01T05:39:14;100967.63;;;25.89;65.51
56042;BME280;48756;41.374;2.066;2022-08-01T05:41:40;100969.56;;;25.87;65.48
56042;BME280;48756;41.374;2.066;2022-08-01T05:44:06;100967.53;;;25.90;65.89
56042;BME280;48756;41.374;2.066;2022-08-01T05:46:31;100976.47;;;25.77;65.59
56042;BME280;48756;41.374;2.066;2022-08-01T05:48:57;100974.50;;;25.80;66.34
56042;BME280;48756;41.374;2.066;2022-08-01T05:51:23;100977.34;;;25.77;66.93
56042;BME280;48756;41.374;2.066;2022-08-01T05:53:49;100971.47;;;25.72;66.08
56042;BME280;48756;41.374;2.066;2022-08-01T05:56:14;100977.56;;;25.87;66.29
56042;BME280;48756;41.374;2.066;2022-08-01T05:58:40;100977.66;;;25.98;64.14
56042;BME280;48756;41.374;2.066;2022-08-01T06:01:05;100979.28;;;26.26;63.67
56042;BME280;48756;41.374;2.066;2022-08-01T06:03:31;100977.44;;;26.27;63.06
56042;BME280;48756;41.374;2.066;2022-08-01T06:05:58;100974.66;;;26.41;63.07
56042;BME280;48756;41.374;2.066;2022-08-01T06:08:23;100974.66;;;26.53;62.96
56042;BME280;48756;41.374;2.066;2022-08-01T06:10:49;100970.66;;;26.59;61.40
56042;BME280;48756;41.374;2.066;2022-08-01T06:13:14;100972.63;;;26.81;61.24
56042;BME280;48756;41.374;2.066;2022-08-01T06:15:40;100976.66;;;26.99;60.00
56042;BME280;48756;41.374;2.066;2022-08-01T06:18:05;100980.06;;;27.36;59.33
56042;BME280;48756;41.374;2.066;2022-08-01T06:20:31;100982.88;;;27.35;59.56
56042;BME280;48756;41.374;2.066;2022-08-01T06:22:57;100982.97;;;27.33;59.33
56042;BME280;48756;41.374;2.066;2022-08-01T06:25:22;100986.94;;;27.40;59.79
56042;BME280;48756;41.374;2.066;2022-08-01T06:27:48;100984.09;;;27.66;58.47
56042;BME280;48756;41.374;2.066;2022-08-01T06:30:14;100984.25;;;27.75;58.15
56042;BME280;48756;41.374;2.066;2022-08-01T06:32:40;100981.81;;;27.72;58.07
56042;BME280;48756;41.374;2.066;2022-08-01T06:35:05;100979.88;;;27.86;57.35
56042;BME280;48756;41.374;2.066;2022-08-01T06:37:31;100986.09;;;27.97;57.67
56042;BME280;48756;41.374;2.066;2022-08-01T06:40:00;100983.19;;;28.00;57.16
56042;BME280;48756;41.374;2.066;2022-08-01T06:42:26;100989.31;;;28.25;56.08
56042;BME280;48756;41.374;2.066;2022-08-01T06:44:51;100993.41;;;27.95;56.49
56042;BME280;48756;41.374;2.066;2022-08-01T06:47:17;100998.03;;;28.04;56.06
56042;BME280;48756;41.374;2.066;2022-08-01T06:49:42;101001.06;;;28.00;55.91
56042;BME280;48756;41.374;2.066;2022-08-01T06:52:07;101004.06;;;28.42;55.31
56042;BME280;48756;41.374;2.066;2022-08-01T06:54:33;100990.13;;;28.14;55.29
56042;BME280;48756;41.374;2.066;2022-08-01T06:56:58;100997.22;;;28.26;54.87
56042;BME280;48756;41.374;2.066;2022-08-01T06:59:24;100992.59;;;28.28;54.87
56042;BME280;48756;41.374;2.066;2022-08-01T07:01:49;100994.03;;;28.66;54.45
56042;BME280;48756;41.374;2.066;2022-08-01T07:04:15;100994.16;;;28.64;54.02
56042;BME280;48756;41.374;2.066;2022-08-01T07:06:40;100995.84;;;28.65;54.11
56042;BME280;48756;41.374;2.066;2022-08-01T07:09:05;100992.44;;;28.75;53.71
56042;BME280;48756;41.374;2.066;2022-08-01T07:11:31;100999.22;;;29.01;53.79
56042;BME280;48756;41.374;2.066;2022-08-01T07:13:56;100992.69;;;29.15;53.30
56042;BME280;48756;41.374;2.066;2022-08-01T07:16:22;100997.88;;;29.07;53.58
56042;BME280;48756;41.374;2.066;2022-08-01T07:18:47;101005.84;;;29.18;53.17
56042;BME280;48756;41.374;2.066;2022-08-01T07:21:13;101002.72;;;29.13;53.04
56042;BME280;48756;41.374;2.066;2022-08-01T07:23:38;101009.25;;;29.31;52.71
56042;BME280;48756;41.374;2.066;2022-08-01T07:26:04;101013.88;;;29.61;51.67
56042;BME280;48756;41.374;2.066;2022-08-01T07:28:31;101014.81;;;29.71;51.47
56042;BME280;48756;41.374;2.066;2022-08-01T07:30:57;101016.19;;;29.66;52.12
56042;BME280;48756;41.374;2.066;2022-08-01T07:33:22;101022.19;;;29.58;52.02
56042;BME280;48756;41.374;2.066;2022-08-01T07:35:48;101018.78;;;29.56;51.84
56042;BME280;48756;41.374;2.066;2022-08-01T07:38:13;101018.41;;;29.61;51.88
56042;BME280;48756;41.374;2.066;2022-08-01T07:40:42;101023.78;;;29.81;51.61
56042;BME280;48756;41.374;2.066;2022-08-01T07:43:07;101019.47;;;29.69;52.04
56042;BME280;48756;41.374;2.066;2022-08-01T07:45:32;101023.31;;;29.97;51.44
56042;BME280;48756;41.374;2.066;2022-08-01T07:48:02;101031.50;;;29.96;51.03
56042;BME280;48756;41.374;2.066;2022-08-01T07:50:28;101019.19;;;30.14;50.35
56042;BME280;48756;41.374;2.066;2022-08-01T07:52:53;101029.78;;;30.36;50.26
56042;BME280;48756;41.374;2.066;2022-08-01T07:55:19;101021.84;;;30.75;49.37
56042;BME280;48756;41.374;2.066;2022-08-01T07:57:44;101022.63;;;30.26;49.46
56042;BME280;48756;41.374;2.066;2022-08-01T08:00:09;101015.00;;;29.79;50.77
56042;BME280;48756;41.374;2.066;2022-08-01T08:02:35;101008.25;;;30.06;50.33
56042;BME280;48756;41.374;2.066;2022-08-01T08:05:01;101015.97;;;30.20;50.05
56042;BME280;48756;41.374;2.066;2022-08-01T08:07:27;101010.94;;;30.76;48.84
56042;BME280;48756;41.374;2.066;2022-08-01T08:09:52;101008.47;;;31.04;47.63
56042;BME280;48756;41.374;2.066;2022-08-01T08:12:17;101013.56;;;31.07;47.44
56042;BME280;48756;41.374;2.066;2022-08-01T08:14:43;101007.09;;;31.29;47.08
56042;BME280;48756;41.374;2.066;2022-08-01T08:17:08;101004.50;;;31.08;47.17
56042;BME280;48756;41.374;2.066;2022-08-01T08:19:34;101003.72;;;31.27;47.08
56042;BME280;48756;41.374;2.066;2022-08-01T08:22:02;101011.69;;;30.98;47.43
56042;BME280;48756;41.374;2.066;2022-08-01T08:24:27;101003.81;;;31.45;47.14
56042;BME280;48756;41.374;2.066;2022-08-01T08:26:54;101004.38;;;31.58;45.58
56042;BME280;48756;41.374;2.066;2022-08-01T08:29:20;101004.25;;;31.40;46.91
56042;BME280;48756;41.374;2.066;2022-08-01T08:31:45;101005.34;;;31.95;45.40
56042;BME280;48756;41.374;2.066;2022-08-01T08:34:11;101010.75;;;31.95;46.19
56042;BME280;48756;41.374;2.066;2022-08-01T08:36:37;101012.50;;;31.48;45.61
56042;BME280;48756;41.374;2.066;2022-08-01T08:39:03;101014.19;;;31.30;46.41
56042;BME280;48756;41.374;2.066;2022-08-01T08:41:29;101010.28;;;32.00;45.07
56042;BME280;48756;41.374;2.066;2022-08-01T08:43:55;101012.06;;;32.28;44.95
56042;BME280;48756;41.374;2.066;2022-08-01T08:46:23;101010.03;;;32.68;43.36
56042;BME280;48756;41.374;2.066;2022-08-01T08:48:50;101014.75;;;33.11;42.80
56042;BME280;48756;41.374;2.066;2022-08-01T08:51:16;101011.03;;;32.67;42.61
56042;BME280;48756;41.374;2.066;2022-08-01T08:53:42;101020.16;;;33.11;42.22
56042;BME280;48756;41.374;2.066;2022-08-01T08:56:10;101014.00;;;33.54;41.54
56042;BME280;48756;41.374;2.066;2022-08-01T08:58:36;101017.34;;;34.18;40.54
56042;BME280;48756;41.374;2.066;2022-08-01T09:01:06;101017.78;;;33.43;40.12
56042;BME280;48756;41.374;2.066;2022-08-01T09:03:33;101025.31;;;33.75;39.48
56042;BME280;48756;41.374;2.066;2022-08-01T09:06:17;101019.50;;;34.14;38.65
56042;BME280;48756;41.374;2.066;2022-08-01T09:08:43;101027.50;;;34.50;38.51
56042;BME280;48756;41.374;2.066;2022-08-01T09:11:08;101023.59;;;34.18;39.14
56042;BME280;48756;41.374;2.066;2022-08-01T09:13:34;101020.78;;;34.02;38.04
56042;BME280;48756;41.374;2.066;2022-08-01T09:15:59;101023.94;;;34.23;38.60
56042;BME280;48756;41.374;2.066;2022-08-01T09:18:37;101022.69;;;34.78;37.26
56042;BME280;48756;41.374;2.066;2022-08-01T09:21:09;101023.53;;;35.37;36.51
56042;BME280;48756;41.374;2.066;2022-08-01T09:23:35;101020.06;;;35.02;36.31
56042;BME280;48756;41.374;2.066;2022-08-01T09:26:04;101023.34;;;34.80;36.87
56042;BME280;48756;41.374;2.066;2022-08-01T09:28:30;101023.34;;;34.72;37.01
56042;BME280;48756;41.374;2.066;2022-08-01T09:30:56;101022.00;;;35.67;34.51
56042;BME280;48756;41.374;2.066;2022-08-01T09:33:22;101024.97;;;34.98;35.94
56042;BME280;48756;41.374;2.066;2022-08-01T09:35:56;101018.78;;;34.38;37.03
56042;BME280;48756;41.374;2.066;2022-08-01T09:38:24;101024.28;;;35.05;35.42
56042;BME280;48756;41.374;2.066;2022-08-01T09:40:56;101032.25;;;34.98;35.85
56042;BME280;48756;41.374;2.066;2022-08-01T09:43:22;101030.72;;;34.61;35.07
56042;BME280;48756;41.374;2.066;2022-08-01T09:45:48;101024.13;;;34.98;35.12
56042;BME280;48756;41.374;2.066;2022-08-01T09:48:14;101023.97;;;35.24;34.67
56042;BME280;48756;41.374;2.066;2022-08-01T09:50:42;101024.22;;;35.39;33.41
56042;BME280;48756;41.374;2.066;2022-08-01T09:53:08;101019.13;;;35.60;34.11
56042;BME280;48756;41.374;2.066;2022-08-01T09:55:33;101021.50;;;35.87;33.83
56042;BME280;48756;41.374;2.066;2022-08-01T09:57:59;101028.41;;;35.98;32.83
56042;BME280;48756;41.374;2.066;2022-08-01T10:00:26;101026.81;;;36.44;32.25
56042;BME280;48756;41.374;2.066;2022-08-01T10:02:51;101024.91;;;35.57;34.51
56042;BME280;48756;41.374;2.066;2022-08-01T10:05:17;101033.50;;;35.52;35.02
56042;BME280;48756;41.374;2.066;2022-08-01T10:07:55;101030.47;;;35.80;33.89
56042;BME280;48756;41.374;2.066;2022-08-01T10:10:21;101024.19;;;35.63;34.27
56042;BME280;48756;41.374;2.066;2022-08-01T10:15:30;101026.75;;;35.65;35.65
56042;BME280;48756;41.374;2.066;2022-08-01T10:17:57;101036.75;;;35.40;36.52
56042;BME280;48756;41.374;2.066;2022-08-01T10:20:24;101036.59;;;36.54;32.56
56042;BME280;48756;41.374;2.066;2022-08-01T10:22:49;101026.78;;;37.15;31.93
56042;BME280;48756;41.374;2.066;2022-08-01T10:25:17;101029.53;;;36.75;32.25
56042;BME280;48756;41.374;2.066;2022-08-01T10:27:43;101020.34;;;37.38;31.95
56042;BME280;48756;41.374;2.066;2022-08-01T10:30:12;101027.00;;;36.74;30.21
56042;BME280;48756;41.374;2.066;2022-08-01T10:32:38;101022.88;;;36.86;30.94
56042;BME280;48756;41.374;2.066;2022-08-01T10:35:05;101026.63;;;36.85;32.37
56042;BME280;48756;41.374;2.066;2022-08-01T10:37:32;101022.22;;;37.38;31.03
56042;BME280;48756;41.374;2.066;2022-08-01T10:39:58;101016.81;;;37.30;28.99
56042;BME280;48756;41.374;2.066;2022-08-01T10:42:24;101018.31;;;37.78;28.44
56042;BME280;48756;41.374;2.066;2022-08-01T10:44:52;101014.56;;;37.10;27.83
56042;BME280;48756;41.374;2.066;2022-08-01T10:47:21;101019.13;;;37.18;28.98
56042;BME280;48756;41.374;2.066;2022-08-01T10:49:53;101005.59;;;37.70;26.47
56042;BME280;48756;41.374;2.066;2022-08-01T10:52:21;101011.31;;;37.61;25.75
56042;BME280;48756;41.374;2.066;2022-08-01T10:54:47;101010.78;;;38.18;26.77
56042;BME280;48756;41.374;2.066;2022-08-01T10:57:12;101003.44;;;37.66;26.80
56042;BME280;48756;41.374;2.066;2022-08-01T10:59:48;100998.16;;;37.87;27.99
56042;BME280;48756;41.374;2.066;2022-08-01T11:02:25;101001.97;;;37.40;28.22
56042;BME280;48756;41.374;2.066;2022-08-01T11:04:55;101008.63;;;36.84;30.18
56042;BME280;48756;41.374;2.066;2022-08-01T11:07:21;101001.72;;;37.50;28.16
56042;BME280;48756;41.374;2.066;2022-08-01T11:09:49;100999.66;;;37.52;29.07
56042;BME280;48756;41.374;2.066;2022-08-01T11:12:23;100995.09;;;38.35;26.42
56042;BME280;48756;41.374;2.066;2022-08-01T11:17:36;100992.50;;;37.14;27.70
56042;BME280;48756;41.374;2.066;2022-08-01T11:22:30;100989.16;;;37.87;25.31
56042;BME280;48756;41.374;2.066;2022-08-01T11:24:56;100987.28;;;37.87;24.79
56042;BME280;48756;41.374;2.066;2022-08-01T11:27:23;100977.66;;;37.62;25.24
56042;BME280;48756;41.374;2.066;2022-08-01T11:32:33;100980.78;;;37.74;24.44
56042;BME280;48756;41.374;2.066;2022-08-01T11:34:59;100976.53;;;37.71;25.70
56042;BME280;48756;41.374;2.066;2022-08-01T11:37:27;100972.66;;;37.51;26.91
56042;BME280;48756;41.374;2.066;2022-08-01T11:42:37;100978.34;;;38.67;26.32
56042;BME280;48756;41.374;2.066;2022-08-01T11:45:02;100979.50;;;38.14;26.29
56042;BME280;48756;41.374;2.066;2022-08-01T11:47:50;100974.66;;;37.11;26.03
56042;BME280;48756;41.374;2.066;2022-08-01T11:53:04;100974.59;;;37.80;26.26
56042;BME280;48756;41.374;2.066;2022-08-01T11:55:30;100958.28;;;38.24;25.87
56042;BME280;48756;41.374;2.066;2022-08-01T11:58:02;100965.84;;;37.69;25.16
56042;BME280;48756;41.374;2.066;2022-08-01T12:00:28;100954.69;;;38.53;24.95
56042;BME280;48756;41.374;2.066;2022-08-01T12:02:59;100953.00;;;37.26;26.98
56042;BME280;48756;41.374;2.066;2022-08-01T12:05:25;100949.78;;;38.27;26.38
56042;BME280;48756;41.374;2.066;2022-08-01T12:07:51;100949.69;;;37.53;25.64
56042;BME280;48756;41.374;2.066;2022-08-01T12:10:18;100949.63;;;37.61;26.25
56042;BME280;48756;41.374;2.066;2022-08-01T12:15:16;100947.38;;;37.04;26.69
56042;BME280;48756;41.374;2.066;2022-08-01T12:20:42;100948.69;;;37.08;26.93
56042;BME280;48756;41.374;2.066;2022-08-01T12:23:00;100940.22;;;37.49;27.10
56042;BME280;48756;41.374;2.066;2022-08-01T12:25:25;100942.97;;;37.64;27.53
56042;BME280;48756;41.374;2.066;2022-08-01T12:27:51;100933.66;;;37.44;28.26
56042;BME280;48756;41.374;2.066;2022-08-01T12:30:18;100917.06;;;37.38;28.45
56042;BME280;48756;41.374;2.066;2022-08-01T12:32:44;100928.34;;;37.27;28.17
56042;BME280;48756;41.374;2.066;2022-08-01T12:35:12;100926.25;;;36.92;28.01
56042;BME280;48756;41.374;2.066;2022-08-01T12:37:40;100936.00;;;37.47;27.79
56042;BME280;48756;41.374;2.066;2022-08-01T12:40:12;100927.59;;;37.71;25.89
56042;BME280;48756;41.374;2.066;2022-08-01T12:42:42;100915.88;;;38.66;25.21
56042;BME280;48756;41.374;2.066;2022-08-01T12:45:08;100922.84;;;37.88;26.68
56042;BME280;48756;41.374;2.066;2022-08-01T12:47:34;100913.72;;;37.95;24.32
56042;BME280;48756;41.374;2.066;2022-08-01T12:50:00;100909.06;;;38.04;25.18
56042;BME280;48756;41.374;2.066;2022-08-01T12:52:25;100906.41;;;36.91;26.89
56042;BME280;48756;41.374;2.066;2022-08-01T12:55:02;100918.13;;;36.92;27.71
56042;BME280;48756;41.374;2.066;2022-08-01T12:57:28;100911.31;;;37.86;25.11
56042;BME280;48756;41.374;2.066;2022-08-01T13:00:04;100900.34;;;38.45;24.79
56042;BME280;48756;41.374;2.066;2022-08-01T13:02:33;100915.78;;;38.08;25.74
56042;BME280;48756;41.374;2.066;2022-08-01T13:04:59;100907.81;;;37.62;25.86
56042;BME280;48756;41.374;2.066;2022-08-01T13:10:09;100907.47;;;37.28;26.59
56042;BME280;48756;41.374;2.066;2022-08-01T13:12:35;100911.06;;;37.43;25.54
56042;BME280;48756;41.374;2.066;2022-08-01T13:15:15;100911.19;;;38.09;25.05
56042;BME280;48756;41.374;2.066;2022-08-01T13:17:41;100896.72;;;38.23;24.96
56042;BME280;48756;41.374;2.066;2022-08-01T13:20:06;100909.66;;;37.47;25.48
56042;BME280;48756;41.374;2.066;2022-08-01T13:22:35;100898.44;;;37.94;25.71
56042;BME280;48756;41.374;2.066;2022-08-01T13:25:13;100900.88;;;37.60;26.94
56042;BME280;48756;41.374;2.066;2022-08-01T13:27:39;100889.78;;;38.56;25.46
56042;BME280;48756;41.374;2.066;2022-08-01T13:32:36;100901.25;;;37.72;26.36
56042;BME280;48756;41.374;2.066;2022-08-01T13:35:06;100897.13;;;37.76;26.28
56042;BME280;48756;41.374;2.066;2022-08-01T13:37:32;100908.19;;;37.59;27.24